Terminal Aerodrome Forecast
Issued by NWS

Home | Current Version | Previous Version | Graphics & Text | Print | Product List | Glossary On
Versions: 1 2 3 4 5 6 7 8 9 10 11 12 13
000
FTUS42 KMHX 011100
TAFISO
TAF
KISO 011133Z 0112/0212 00000KT 3SM BR SKC
     FM011300 23007KT P6SM SCT040
     FM020900 VRB03KT 3SM BR SCT250
      AMD LTD TO CLD VIS AND WIND=

USA.gov is the U.S. government's official web portal to all federal, state and local government web resources and services.